createdAt,value
2024-02-24T00:01:54.894Z,10.40
2024-02-24T00:04:22.960Z,10.40
2024-02-24T00:06:51.030Z,10.40
2024-02-24T00:09:19.335Z,10.40
2024-02-24T00:11:49.090Z,10.40
2024-02-24T00:14:17.315Z,10.40
2024-02-24T00:16:45.465Z,10.40
2024-02-24T00:19:13.648Z,10.40
2024-02-24T00:21:41.754Z,10.30
2024-02-24T00:24:10.081Z,10.40
2024-02-24T00:26:38.202Z,10.30
2024-02-24T00:29:07.687Z,10.30
2024-02-24T00:31:35.864Z,10.30
2024-02-24T00:34:04.278Z,10.30
2024-02-24T00:36:33.306Z,10.30
2024-02-24T00:39:01.598Z,10.30
2024-02-24T00:41:29.667Z,10.30
2024-02-24T00:43:59.666Z,10.30
2024-02-24T00:46:29.110Z,10.30
2024-02-24T00:48:57.262Z,10.30
2024-02-24T00:51:25.418Z,10.30
2024-02-24T00:53:53.911Z,10.30
2024-02-24T00:56:22.509Z,10.20
2024-02-24T00:58:50.727Z,10.20
2024-02-24T01:01:18.901Z,10.20
2024-02-24T01:03:48.380Z,10.30
2024-02-24T01:06:16.475Z,10.30
2024-02-24T01:08:44.561Z,10.20
2024-02-24T01:11:12.823Z,10.50
2024-02-24T01:13:41.137Z,10.20
2024-02-24T01:16:37.022Z,10.20
2024-02-24T01:19:06.653Z,10.20
2024-02-24T01:21:34.832Z,10.20
2024-02-24T01:24:03.074Z,10.20
2024-02-24T01:26:31.469Z,10.20
2024-02-24T01:28:59.820Z,10.20
2024-02-24T01:31:27.897Z,10.20
2024-02-24T01:33:55.993Z,10.20
2024-02-24T01:36:26.046Z,10.10
2024-02-24T01:38:55.425Z,10.10
2024-02-24T01:41:30.005Z,10.10
2024-02-24T01:43:58.356Z,10.10
2024-02-24T01:46:26.413Z,10.10
2024-02-24T01:48:54.751Z,10.10
2024-02-24T01:51:22.922Z,10.10
2024-02-24T01:53:52.514Z,10.00
2024-02-24T01:56:21.738Z,10.10
2024-02-24T01:58:50.796Z,10.10
2024-02-24T02:01:19.468Z,10.10
2024-02-24T02:03:48.029Z,10.10
2024-02-24T02:06:16.275Z,10.00
2024-02-24T02:08:44.536Z,10.00
2024-02-24T02:11:14.372Z,10.00
2024-02-24T02:13:42.564Z,10.00
2024-02-24T02:16:11.091Z,10.10
2024-02-24T02:18:39.321Z,10.00
2024-02-24T02:21:09.180Z,10.00
2024-02-24T02:23:38.603Z,10.00
2024-02-24T02:26:06.872Z,10.00
2024-02-24T02:28:34.977Z,10.00
2024-02-24T02:31:03.046Z,10.00
2024-02-24T02:33:31.350Z,10.00
2024-02-24T02:35:59.732Z,10.00
2024-02-24T02:38:27.861Z,10.00
2024-02-24T02:40:57.380Z,10.00
2024-02-24T02:43:25.436Z,10.00
2024-02-24T02:45:53.673Z,10.00
2024-02-24T02:48:21.992Z,10.00
2024-02-24T02:50:50.131Z,10.00
2024-02-24T02:53:19.088Z,10.00
2024-02-24T02:55:47.191Z,10.00
2024-02-24T02:58:16.983Z,10.00
2024-02-24T03:00:46.439Z,10.00
2024-02-24T03:03:14.733Z,10.00
2024-02-24T03:05:44.429Z,10.00
2024-02-24T03:08:12.642Z,10.00
2024-02-24T03:10:41.255Z,10.00
2024-02-24T03:13:09.468Z,10.00
2024-02-24T03:15:39.449Z,10.00
2024-02-24T03:18:07.618Z,9.90
2024-02-24T03:20:35.944Z,10.00
2024-02-24T03:23:05.932Z,9.90
2024-02-24T03:25:34.206Z,9.90
2024-02-24T03:28:02.418Z,10.00
2024-02-24T03:30:30.428Z,10.00
2024-02-24T03:33:00.023Z,9.90
2024-02-24T03:35:28.247Z,9.90
2024-02-24T03:37:57.633Z,9.90
2024-02-24T03:40:26.007Z,9.90
2024-02-24T03:42:54.071Z,9.90
2024-02-24T03:45:22.118Z,9.90
2024-02-24T03:47:50.730Z,9.90
2024-02-24T03:50:20.711Z,10.20
2024-02-24T03:52:49.299Z,10.00
2024-02-24T03:55:17.488Z,9.90
2024-02-24T03:57:45.517Z,9.90
2024-02-24T04:00:15.055Z,9.90
2024-02-24T04:02:45.093Z,10.00
2024-02-24T04:05:13.785Z,10.00
2024-02-24T04:07:43.314Z,10.00
2024-02-24T04:10:12.182Z,9.90
2024-02-24T04:12:40.497Z,10.00
2024-02-24T04:15:09.777Z,10.00
2024-02-24T04:17:38.436Z,9.90
2024-02-24T04:20:07.618Z,10.00
2024-02-24T04:22:35.715Z,9.90
2024-02-24T04:25:05.729Z,9.90
2024-02-24T04:27:34.116Z,10.00
2024-02-24T04:30:02.274Z,9.90
2024-02-24T04:32:31.296Z,9.90
2024-02-24T04:34:59.558Z,10.00
2024-02-24T04:37:27.625Z,9.90
2024-02-24T04:39:55.691Z,9.90
2024-02-24T04:42:25.670Z,9.90
2024-02-24T04:44:53.883Z,9.90
2024-02-24T04:47:24.307Z,9.90
2024-02-24T04:49:52.559Z,9.90
2024-02-24T04:52:20.696Z,9.90
2024-02-24T04:54:48.891Z,9.90
2024-02-24T04:57:17.105Z,9.90
2024-02-24T04:59:46.686Z,9.90
2024-02-24T05:02:15.037Z,9.90
2024-02-24T05:04:43.180Z,9.90
2024-02-24T05:07:11.173Z,9.80
2024-02-24T05:09:39.286Z,9.80
2024-02-24T05:12:07.826Z,9.80
2024-02-24T05:14:38.688Z,9.90
2024-02-24T05:17:09.363Z,9.80
2024-02-24T05:19:37.754Z,9.80
2024-02-24T05:22:06.110Z,9.80
2024-02-24T05:24:34.651Z,9.80
2024-02-24T05:27:03.278Z,9.80
2024-02-24T05:29:31.408Z,9.80
2024-02-24T05:31:59.441Z,9.80
2024-02-24T05:34:29.231Z,9.80
2024-02-24T05:36:57.378Z,9.70
2024-02-24T05:39:25.590Z,9.80
2024-02-24T05:41:55.884Z,9.80
2024-02-24T05:44:23.966Z,9.70
2024-02-24T05:46:52.071Z,9.70
2024-02-24T05:49:20.137Z,9.80
2024-02-24T05:51:49.531Z,9.80
2024-02-24T05:54:17.618Z,9.70
2024-02-24T05:56:45.744Z,9.80
2024-02-24T05:59:13.848Z,9.80
2024-02-24T06:01:41.988Z,9.80
2024-02-24T06:04:10.041Z,9.70
2024-02-24T06:06:38.170Z,9.70
2024-02-24T06:09:07.594Z,9.80
2024-02-24T06:11:35.671Z,9.80
2024-02-24T06:14:03.742Z,9.70
2024-02-24T06:16:31.982Z,9.80
2024-02-24T06:19:00.151Z,9.80
2024-02-24T06:21:29.764Z,9.80
2024-02-24T06:23:58.032Z,9.80
2024-02-24T06:26:27.505Z,9.70
2024-02-24T06:28:56.919Z,9.70
2024-02-24T06:31:25.070Z,9.80
2024-02-24T06:33:53.485Z,9.70
2024-02-24T06:36:21.640Z,9.70
2024-02-24T06:38:50.363Z,9.80
2024-02-24T06:41:19.703Z,9.70
2024-02-24T06:43:49.155Z,9.80
2024-02-24T06:46:17.259Z,9.70
2024-02-24T06:48:47.111Z,9.80
2024-02-24T06:51:15.947Z,9.80
2024-02-24T06:53:45.079Z,9.70
2024-02-24T06:56:13.753Z,9.70
2024-02-24T06:58:42.767Z,9.70
2024-02-24T07:01:12.487Z,9.70
2024-02-24T07:03:40.571Z,9.80
2024-02-24T07:06:08.948Z,9.80
2024-02-24T07:08:37.345Z,10.00
2024-02-24T07:11:05.940Z,9.80
2024-02-24T07:13:34.023Z,9.80
2024-02-24T07:16:02.473Z,9.80
2024-02-24T07:18:32.499Z,9.80
2024-02-24T07:21:03.312Z,9.80
2024-02-24T07:23:32.055Z,9.80
2024-02-24T07:26:01.612Z,9.80
2024-02-24T07:28:29.872Z,9.80
2024-02-24T07:30:57.996Z,9.80
2024-02-24T07:33:26.408Z,9.80
2024-02-24T07:35:56.102Z,9.80
2024-02-24T07:38:24.636Z,9.80
2024-02-24T07:40:52.897Z,9.80
2024-02-24T07:43:22.793Z,9.80
2024-02-24T07:45:50.937Z,9.80
2024-02-24T07:48:19.235Z,9.80
2024-02-24T07:50:47.507Z,9.80
2024-02-24T07:53:17.204Z,9.80
2024-02-24T07:55:45.461Z,9.90
2024-02-24T07:58:13.693Z,9.60
2024-02-24T08:00:44.106Z,9.90
2024-02-24T08:03:13.807Z,9.90
2024-02-24T08:05:41.942Z,9.80
2024-02-24T08:08:10.178Z,9.90
2024-02-24T08:10:39.897Z,9.90
2024-02-24T08:13:08.099Z,9.90
2024-02-24T08:15:36.378Z,9.90
2024-02-24T08:18:04.810Z,9.90
2024-02-24T08:20:35.646Z,9.90
2024-02-24T08:23:05.002Z,9.90
2024-02-24T08:25:33.102Z,9.90
2024-02-24T08:28:02.628Z,9.90
2024-02-24T08:30:30.692Z,9.90
2024-02-24T08:32:59.022Z,9.90
2024-02-24T08:35:27.226Z,9.80
2024-02-24T08:37:55.366Z,9.80
2024-02-24T08:40:23.462Z,9.80
2024-02-24T08:42:51.776Z,9.80
2024-02-24T08:45:21.249Z,9.90
2024-02-24T08:47:49.348Z,9.80
2024-02-24T08:50:17.957Z,9.80
2024-02-24T08:52:50.368Z,9.80
2024-02-24T08:55:18.989Z,9.80
2024-02-24T08:57:47.055Z,9.80
2024-02-24T09:00:16.239Z,9.80
2024-02-24T09:02:45.726Z,9.80
2024-02-24T09:05:14.259Z,9.80
2024-02-24T09:07:42.429Z,9.80
2024-02-24T09:10:11.460Z,9.70
2024-02-24T09:12:39.676Z,9.70
2024-02-24T09:15:08.556Z,9.70
2024-02-24T09:17:36.935Z,9.70
2024-02-24T09:20:09.914Z,9.70
2024-02-24T09:22:38.210Z,9.70
2024-02-24T09:25:07.002Z,9.70
2024-02-24T09:27:35.137Z,9.70
2024-02-24T09:30:03.663Z,9.70
2024-02-24T09:32:31.931Z,9.70
2024-02-24T09:35:00.083Z,9.70
2024-02-24T09:37:29.582Z,9.60
2024-02-24T09:39:58.226Z,9.70
2024-02-24T09:42:28.233Z,9.60
2024-02-24T09:44:59.903Z,9.60
2024-02-24T09:47:28.606Z,9.70
2024-02-24T09:49:58.683Z,9.60
2024-02-24T09:52:26.885Z,9.70
2024-02-24T09:54:56.519Z,9.60
2024-02-24T09:57:31.068Z,9.60
2024-02-24T09:59:59.580Z,9.60
2024-02-24T10:02:27.795Z,9.60
2024-02-24T10:04:56.099Z,9.60
2024-02-24T10:07:24.390Z,9.60
2024-02-24T10:09:52.466Z,9.60
2024-02-24T10:12:21.925Z,9.60
2024-02-24T10:14:50.165Z,9.70
2024-02-24T10:17:18.649Z,9.60
2024-02-24T10:19:48.443Z,9.70
2024-02-24T10:22:18.926Z,9.70
2024-02-24T10:24:48.169Z,9.70
2024-02-24T10:27:18.596Z,9.70
2024-02-24T10:29:52.132Z,9.70
2024-02-24T10:32:22.580Z,9.70
2024-02-24T10:34:51.173Z,9.70
2024-02-24T10:37:20.133Z,9.70
2024-02-24T10:39:51.856Z,9.70
2024-02-24T10:42:23.628Z,9.80
2024-02-24T10:44:53.917Z,9.70
2024-02-24T10:47:22.053Z,9.70
2024-02-24T10:49:50.293Z,9.70
2024-02-24T10:52:20.526Z,9.80
2024-02-24T10:54:51.066Z,9.80
2024-02-24T10:57:21.145Z,9.80
2024-02-24T10:59:50.090Z,9.80
2024-02-24T11:02:22.159Z,9.80
2024-02-24T11:04:52.707Z,9.80
2024-02-24T11:07:23.944Z,9.80
2024-02-24T11:09:55.198Z,9.80
2024-02-24T11:12:24.076Z,9.80
2024-02-24T11:14:54.069Z,9.80
2024-02-24T11:17:52.938Z,9.80
2024-02-24T11:20:56.549Z,9.80
2024-02-24T11:23:26.541Z,9.80
2024-02-24T11:26:29.375Z,9.90
2024-02-24T11:29:06.842Z,9.90
2024-02-24T11:31:36.798Z,9.90
2024-02-24T11:34:09.293Z,9.90
2024-02-24T11:36:39.772Z,9.90
2024-02-24T11:39:10.236Z,9.90
2024-02-24T11:41:41.199Z,9.90
2024-02-24T11:44:09.470Z,9.90
2024-02-24T11:46:38.216Z,10.00
2024-02-24T11:49:07.764Z,10.00
2024-02-24T11:51:37.043Z,10.00
2024-02-24T11:54:05.399Z,10.00
2024-02-24T11:56:34.205Z,10.00
2024-02-24T11:59:03.157Z,10.00
2024-02-24T12:01:31.620Z,10.00
2024-02-24T12:04:01.086Z,10.00
2024-02-24T12:06:32.110Z,10.00
2024-02-24T12:09:02.650Z,10.00
2024-02-24T12:11:31.310Z,10.00
2024-02-24T12:13:59.798Z,10.00
2024-02-24T12:16:30.135Z,9.90
2024-02-24T12:18:59.500Z,10.00
2024-02-24T12:21:28.994Z,10.00
2024-02-24T12:23:59.258Z,10.00
2024-02-24T12:26:28.151Z,10.00
2024-02-24T12:28:56.788Z,10.00
2024-02-24T12:31:25.985Z,10.00
2024-02-24T12:33:54.452Z,10.00
2024-02-24T12:36:23.490Z,10.00
2024-02-24T12:38:51.767Z,10.00
2024-02-24T12:41:21.441Z,10.00
2024-02-24T12:43:48.608Z,10.00
2024-02-24T12:46:20.769Z,10.00
2024-02-24T12:48:49.454Z,10.00
2024-02-24T12:51:18.306Z,10.00
2024-02-24T12:53:46.481Z,10.00
2024-02-24T12:56:15.009Z,10.00
2024-02-24T12:58:45.037Z,10.10
2024-02-24T13:01:14.590Z,10.10
2024-02-24T13:03:42.803Z,10.10
2024-02-24T13:06:11.154Z,10.10
2024-02-24T13:08:39.722Z,10.10
2024-02-24T13:11:08.321Z,10.10
2024-02-24T13:13:36.580Z,10.10
2024-02-24T13:16:06.490Z,10.20
2024-02-24T13:18:34.837Z,10.20
2024-02-24T13:21:03.043Z,10.20
2024-02-24T13:23:31.255Z,10.20
2024-02-24T13:25:59.443Z,10.20
2024-02-24T13:28:27.844Z,10.20
2024-02-24T13:30:56.040Z,10.20
2024-02-24T13:33:25.674Z,10.20
2024-02-24T13:35:54.113Z,10.10
2024-02-24T13:38:22.194Z,10.10
2024-02-24T13:40:50.343Z,10.10
2024-02-24T13:43:18.808Z,10.00
2024-02-24T13:45:47.186Z,10.00
2024-02-24T13:48:15.871Z,10.00
2024-02-24T13:50:45.523Z,10.00
2024-02-24T13:53:13.704Z,10.00
2024-02-24T13:55:41.734Z,10.00
2024-02-24T13:58:09.861Z,10.00
2024-02-24T14:00:38.148Z,10.00
2024-02-24T14:03:06.684Z,10.00
2024-02-24T14:05:35.287Z,10.00
2024-02-24T14:08:05.663Z,10.00
2024-02-24T14:10:34.575Z,10.00
2024-02-24T14:13:03.088Z,10.10
2024-02-24T14:15:31.347Z,10.10
2024-02-24T14:17:59.721Z,10.10
2024-02-24T14:20:32.744Z,10.10
2024-02-24T14:23:01.170Z,10.20
2024-02-24T14:25:31.289Z,10.20
2024-02-24T14:28:00.233Z,10.20
2024-02-24T14:30:28.327Z,10.30
2024-02-24T14:32:56.757Z,10.30
2024-02-24T14:35:25.379Z,10.30
2024-02-24T14:37:53.630Z,10.30
2024-02-24T14:40:22.809Z,10.40
2024-02-24T14:42:52.612Z,10.40
2024-02-24T14:45:20.829Z,10.40
2024-02-24T14:47:49.265Z,10.40
2024-02-24T14:50:17.450Z,10.40
2024-02-24T14:52:45.519Z,10.40
2024-02-24T14:55:13.690Z,10.50
2024-02-24T14:57:41.896Z,10.50
2024-02-24T15:00:14.074Z,10.50
2024-02-24T15:02:52.245Z,10.50
2024-02-24T15:05:28.094Z,10.50
2024-02-24T15:07:57.987Z,10.50
2024-02-24T15:10:26.190Z,10.50
2024-02-24T15:12:54.394Z,10.50
2024-02-24T15:15:24.032Z,10.50
2024-02-24T15:17:53.801Z,10.50
2024-02-24T15:20:22.437Z,10.40
2024-02-24T15:22:51.933Z,10.50
2024-02-24T15:25:20.401Z,10.50
2024-02-24T15:27:48.524Z,10.50
2024-02-24T15:30:16.739Z,10.50
2024-02-24T15:32:46.707Z,10.50
2024-02-24T15:35:14.972Z,10.50
2024-02-24T15:37:44.434Z,10.40
2024-02-24T15:40:13.643Z,10.50
2024-02-24T15:42:41.786Z,10.50
2024-02-24T15:45:10.375Z,10.50
2024-02-24T15:47:38.777Z,10.50
2024-02-24T15:50:10.984Z,10.60
2024-02-24T15:52:39.739Z,10.60
2024-02-24T15:55:08.616Z,10.60
2024-02-24T15:57:36.860Z,10.60
2024-02-24T16:00:06.192Z,10.60
2024-02-24T16:02:36.172Z,10.60
2024-02-24T16:05:04.748Z,10.60
2024-02-24T16:07:34.180Z,10.60
2024-02-24T16:10:02.241Z,10.70
2024-02-24T16:12:30.342Z,10.70
2024-02-24T16:14:58.594Z,10.70
2024-02-24T16:17:26.862Z,10.70
2024-02-24T16:19:55.187Z,10.70
2024-02-24T16:22:23.307Z,10.70
2024-02-24T16:24:52.844Z,10.70
2024-02-24T16:27:21.005Z,10.70
2024-02-24T16:29:49.326Z,10.70
2024-02-24T16:32:17.665Z,10.70
2024-02-24T16:34:46.290Z,10.60
2024-02-24T16:37:14.707Z,10.60
2024-02-24T16:39:43.054Z,10.60
2024-02-24T16:42:12.501Z,10.60
2024-02-24T16:44:41.036Z,10.60
2024-02-24T16:47:09.098Z,10.60
2024-02-24T16:49:37.247Z,10.60
2024-02-24T16:52:06.104Z,10.70
2024-02-24T16:54:37.364Z,10.60
2024-02-24T16:57:10.435Z,10.60
2024-02-24T16:59:41.589Z,10.60
2024-02-24T17:02:09.887Z,10.60
2024-02-24T17:04:39.229Z,10.50
2024-02-24T17:07:07.506Z,10.50
2024-02-24T17:09:36.114Z,10.50
2024-02-24T17:12:05.009Z,10.50
2024-02-24T17:14:33.310Z,10.50
2024-02-24T17:17:03.120Z,10.50
2024-02-24T17:19:31.363Z,10.50
2024-02-24T17:21:59.484Z,10.50
2024-02-24T17:24:27.548Z,10.60
2024-02-24T17:26:56.223Z,10.50
2024-02-24T17:29:24.747Z,10.50
2024-02-24T17:31:53.130Z,10.50
2024-02-24T17:34:22.619Z,10.40
2024-02-24T17:36:50.839Z,10.40
2024-02-24T17:39:22.120Z,10.40
2024-02-24T17:41:50.438Z,10.40
2024-02-24T17:44:18.619Z,10.40
2024-02-24T17:46:46.898Z,10.40
2024-02-24T17:49:17.510Z,10.40
2024-02-24T17:51:47.237Z,10.40
2024-02-24T17:54:15.656Z,10.40
2024-02-24T17:56:43.922Z,10.40
2024-02-24T17:59:12.067Z,10.40
2024-02-24T18:01:40.228Z,10.40
2024-02-24T18:04:08.498Z,10.30
2024-02-24T18:06:36.865Z,10.30
2024-02-24T18:09:06.703Z,10.30
2024-02-24T18:11:35.152Z,10.30
2024-02-24T18:14:03.245Z,10.30
2024-02-24T18:16:33.027Z,10.30
2024-02-24T18:19:02.704Z,10.30
2024-02-24T18:21:30.842Z,10.30
2024-02-24T18:23:59.182Z,10.30
2024-02-24T18:26:28.700Z,10.30
2024-02-24T18:29:01.980Z,10.30
2024-02-24T18:31:30.569Z,10.30
2024-02-24T18:33:58.896Z,10.30
2024-02-24T18:36:27.539Z,10.30
2024-02-24T18:38:56.171Z,10.20
2024-02-24T18:41:24.631Z,10.20
2024-02-24T18:43:54.033Z,10.20
2024-02-24T18:46:22.675Z,10.20
2024-02-24T18:48:51.487Z,10.20
2024-02-24T18:51:19.936Z,10.20
2024-02-24T18:53:48.191Z,10.20
2024-02-24T18:56:16.280Z,10.20
2024-02-24T18:58:44.470Z,10.20
2024-02-24T19:01:13.903Z,10.10
2024-02-24T19:03:42.092Z,10.10
2024-02-24T19:06:11.365Z,10.10
2024-02-24T19:08:40.288Z,10.10
2024-02-24T19:11:08.424Z,10.10
2024-02-24T19:13:36.484Z,10.10
2024-02-24T19:16:04.896Z,10.10
2024-02-24T19:18:34.484Z,10.10
2024-02-24T19:21:03.856Z,10.10
2024-02-24T19:23:32.159Z,10.10
2024-02-24T19:26:00.313Z,9.80
2024-02-24T19:28:28.394Z,10.10
2024-02-24T19:30:58.034Z,10.10
2024-02-24T19:33:26.607Z,10.00
2024-02-24T19:35:56.291Z,9.80
2024-02-24T19:38:25.117Z,10.00
2024-02-24T19:40:53.239Z,10.00
2024-02-24T19:43:21.314Z,10.00
2024-02-24T19:45:49.503Z,10.00
2024-02-24T19:48:17.684Z,10.00
2024-02-24T19:50:49.282Z,10.00
2024-02-24T19:53:21.304Z,10.00
2024-02-24T19:55:49.394Z,10.00
2024-02-24T19:58:24.958Z,10.00
2024-02-24T20:01:01.597Z,10.00
2024-02-24T20:03:29.713Z,9.90
2024-02-24T20:05:58.009Z,10.00
2024-02-24T20:08:27.535Z,9.90
2024-02-24T20:10:55.603Z,10.00
2024-02-24T20:13:23.644Z,9.90
2024-02-24T20:15:52.019Z,9.90
2024-02-24T20:18:20.234Z,9.90
2024-02-24T20:20:48.570Z,9.90
2024-02-24T20:23:16.621Z,9.90
2024-02-24T20:25:46.081Z,9.90
2024-02-24T20:28:14.135Z,9.90
2024-02-24T20:30:42.182Z,9.90
2024-02-24T20:33:10.347Z,9.90
2024-02-24T20:35:38.806Z,9.90
2024-02-24T20:38:06.903Z,9.90
2024-02-24T20:40:35.110Z,9.90
2024-02-24T20:43:05.072Z,9.90
2024-02-24T20:45:33.093Z,9.90
2024-02-24T20:48:01.355Z,9.90
2024-02-24T20:50:31.548Z,9.90
2024-02-24T20:52:59.943Z,9.90
2024-02-24T20:55:27.980Z,9.90
2024-02-24T20:57:56.203Z,9.90
2024-02-24T21:00:25.553Z,9.90
2024-02-24T21:02:53.945Z,9.80
2024-02-24T21:05:22.132Z,9.90
2024-02-24T21:07:50.274Z,9.90
2024-02-24T21:10:18.374Z,9.90
2024-02-24T21:12:46.441Z,9.90
2024-02-24T21:15:14.584Z,9.80
2024-02-24T21:17:43.996Z,9.80
2024-02-24T21:20:13.160Z,9.90
2024-02-24T21:22:42.016Z,9.80
2024-02-24T21:25:13.010Z,9.90
2024-02-24T21:27:41.103Z,9.80
2024-02-24T21:30:10.460Z,9.80
2024-02-24T21:32:38.856Z,9.90
2024-02-24T21:35:09.061Z,9.80
2024-02-24T21:37:37.060Z,9.80
2024-02-24T21:40:06.306Z,9.80
2024-02-24T21:42:34.572Z,9.80
2024-02-24T21:45:02.807Z,9.80
2024-02-24T21:47:30.982Z,9.80
2024-02-24T21:49:59.089Z,9.80
2024-02-24T21:52:28.479Z,9.80
2024-02-24T21:54:56.666Z,9.80
2024-02-24T21:57:24.939Z,9.80
2024-02-24T21:59:53.035Z,9.80
2024-02-24T22:02:21.392Z,9.80
2024-02-24T22:04:50.578Z,9.80
2024-02-24T22:07:19.634Z,9.80
2024-02-24T22:09:49.111Z,9.70
2024-02-24T22:12:17.395Z,9.70
2024-02-24T22:14:45.551Z,9.70
2024-02-24T22:17:14.684Z,9.70
2024-02-24T22:19:43.043Z,9.70
2024-02-24T22:22:11.184Z,9.70
2024-02-24T22:24:39.618Z,9.70
2024-02-24T22:27:09.439Z,9.70
2024-02-24T22:29:41.591Z,9.70
2024-02-24T22:32:09.726Z,9.80
2024-02-24T22:34:38.040Z,9.60
2024-02-24T22:37:06.332Z,9.70
2024-02-24T22:39:34.524Z,9.60
2024-02-24T22:42:02.784Z,9.70
2024-02-24T22:44:32.796Z,9.70
2024-02-24T22:47:00.950Z,9.60
2024-02-24T22:49:29.318Z,9.70
2024-02-24T22:51:57.444Z,9.60
2024-02-24T22:54:25.582Z,9.60
2024-02-24T22:56:53.711Z,9.60
2024-02-24T22:59:21.852Z,9.60
2024-02-24T23:01:52.120Z,9.60
2024-02-24T23:04:20.315Z,9.60
2024-02-24T23:06:48.511Z,9.60
2024-02-24T23:09:16.678Z,9.70
2024-02-24T23:11:44.942Z,9.60
2024-02-24T23:14:13.331Z,9.60
2024-02-24T23:16:41.749Z,9.70
2024-02-24T23:19:11.306Z,9.70
2024-02-24T23:21:40.328Z,9.60
2024-02-24T23:24:08.797Z,9.60
2024-02-24T23:26:36.912Z,9.60
2024-02-24T23:29:06.350Z,9.70
2024-02-24T23:31:34.445Z,9.60
2024-02-24T23:34:03.232Z,9.70
2024-02-24T23:36:32.867Z,9.70
2024-02-24T23:39:01.127Z,9.70
2024-02-24T23:41:29.400Z,9.70
2024-02-24T23:43:57.492Z,9.70
2024-02-24T23:46:25.546Z,9.70
2024-02-24T23:48:53.769Z,9.70
2024-02-24T23:51:22.183Z,9.70
2024-02-24T23:53:52.473Z,9.70
2024-02-24T23:56:22.034Z,9.70
2024-02-24T23:58:50.893Z,9.70
